createdAt,value
2023-03-26T00:00:16.196Z,4.43
2023-03-26T00:02:42.591Z,3.67
2023-03-26T00:05:09.259Z,3.70
2023-03-26T00:07:35.623Z,3.90
2023-03-26T00:10:01.881Z,3.63
2023-03-26T00:12:28.185Z,4.10
2023-03-26T00:14:54.470Z,3.90
2023-03-26T00:17:21.175Z,3.55
2023-03-26T00:19:47.458Z,7.93
2023-03-26T00:22:14.268Z,4.38
2023-03-26T00:24:40.605Z,3.83
2023-03-26T00:27:08.739Z,4.30
2023-03-26T00:29:35.766Z,4.80
2023-03-26T00:32:02.116Z,5.20
2023-03-26T00:34:28.451Z,3.97
2023-03-26T00:36:54.819Z,3.67
2023-03-26T00:39:23.925Z,6.05
2023-03-26T00:41:54.077Z,4.15
2023-03-26T00:44:20.887Z,4.10
2023-03-26T00:46:47.282Z,4.68
2023-03-26T00:49:14.805Z,4.72
2023-03-26T00:51:41.937Z,5.35
2023-03-26T00:54:08.297Z,4.50
2023-03-26T00:56:34.996Z,5.15
2023-03-26T00:59:01.312Z,5.88
2023-03-26T01:01:29.211Z,5.00
2023-03-26T01:04:07.430Z,6.88
2023-03-26T01:06:37.170Z,5.47
2023-03-26T01:09:23.676Z,6.35
2023-03-26T01:11:50.218Z,8.27
2023-03-26T01:14:21.301Z,6.45
2023-03-26T01:16:51.814Z,7.05
2023-03-26T01:19:22.834Z,7.18
2023-03-26T01:21:49.103Z,6.95
2023-03-26T01:24:15.388Z,7.47
2023-03-26T01:26:47.711Z,7.45
2023-03-26T01:29:21.939Z,8.57
2023-03-26T01:32:03.206Z,8.00
2023-03-26T01:34:30.656Z,8.20
2023-03-26T01:37:08.884Z,7.55
2023-03-26T01:39:42.836Z,7.93
2023-03-26T01:42:15.448Z,7.68
2023-03-26T01:44:46.853Z,7.43
2023-03-26T01:47:13.822Z,7.40
2023-03-26T01:49:40.365Z,8.32
2023-03-26T01:52:12.576Z,8.18
2023-03-26T01:54:38.963Z,8.23
2023-03-26T01:57:11.175Z,7.22
2023-03-26T01:59:43.182Z,8.63
2023-03-26T02:02:28.430Z,8.80
2023-03-26T02:04:54.809Z,8.38
2023-03-26T02:07:28.541Z,9.23
2023-03-26T02:09:58.226Z,8.25
2023-03-26T02:12:24.847Z,9.20
2023-03-26T02:14:51.092Z,8.30
2023-03-26T02:17:19.123Z,7.78
2023-03-26T02:19:45.399Z,9.73
2023-03-26T02:22:15.437Z,7.57
2023-03-26T02:24:42.594Z,9.07
2023-03-26T02:27:09.503Z,8.32
2023-03-26T02:29:39.810Z,9.45
2023-03-26T02:32:07.018Z,8.23
2023-03-26T02:34:33.556Z,9.55
2023-03-26T02:36:59.849Z,8.65
2023-03-26T02:39:26.621Z,8.30
2023-03-26T02:41:52.958Z,9.50
2023-03-26T02:44:19.337Z,8.50
2023-03-26T02:46:45.793Z,8.88
2023-03-26T02:49:12.149Z,8.52
2023-03-26T02:51:38.487Z,8.40
2023-03-26T02:54:04.843Z,7.97
2023-03-26T02:56:31.262Z,8.38
2023-03-26T02:58:57.619Z,8.60
2023-03-26T03:01:24.208Z,8.60
2023-03-26T03:03:50.619Z,9.63
2023-03-26T03:06:18.678Z,8.93
2023-03-26T03:08:48.823Z,11.30
2023-03-26T03:11:16.539Z,9.60
2023-03-26T03:13:43.768Z,11.70
2023-03-26T03:16:10.665Z,9.80
2023-03-26T03:18:37.687Z,10.55
2023-03-26T03:21:04.741Z,10.23
2023-03-26T03:23:31.224Z,10.27
2023-03-26T03:25:57.851Z,11.93
2023-03-26T03:28:24.943Z,10.85
2023-03-26T03:30:57.466Z,11.70
2023-03-26T03:33:23.967Z,12.23
2023-03-26T03:35:50.678Z,11.70
2023-03-26T03:38:17.602Z,11.15
2023-03-26T03:40:44.027Z,11.57
2023-03-26T03:43:10.324Z,12.60
2023-03-26T03:45:36.576Z,12.75
2023-03-26T03:48:03.346Z,13.18
2023-03-26T03:50:29.769Z,11.90
2023-03-26T03:52:56.011Z,11.73
2023-03-26T03:55:24.076Z,10.38
2023-03-26T03:57:52.438Z,13.90
2023-03-26T04:00:18.876Z,11.32
2023-03-26T04:02:46.306Z,11.13
2023-03-26T04:05:12.819Z,11.40
2023-03-26T04:07:39.260Z,11.20
2023-03-26T04:10:06.636Z,12.00
2023-03-26T04:12:32.929Z,12.38
2023-03-26T04:14:59.278Z,11.88
2023-03-26T04:17:26.022Z,11.60
2023-03-26T04:19:55.188Z,12.68
2023-03-26T04:22:21.720Z,11.48
2023-03-26T04:24:49.706Z,11.88
2023-03-26T04:27:20.229Z,12.77
2023-03-26T04:29:49.579Z,10.85
2023-03-26T04:32:24.653Z,12.68
2023-03-26T04:34:51.053Z,13.65
2023-03-26T04:37:22.461Z,13.68
2023-03-26T04:39:50.114Z,14.30
2023-03-26T04:42:19.917Z,12.93
2023-03-26T04:44:50.659Z,13.73
2023-03-26T04:49:43.620Z,12.60
2023-03-26T04:52:13.393Z,13.38
2023-03-26T04:54:40.045Z,12.93
2023-03-26T04:57:09.272Z,11.95
2023-03-26T04:59:35.587Z,12.35
2023-03-26T05:02:02.812Z,15.02
2023-03-26T05:04:34.139Z,13.00
2023-03-26T05:07:00.736Z,12.02
2023-03-26T05:09:27.165Z,12.80
2023-03-26T05:11:53.763Z,12.80
2023-03-26T05:14:20.204Z,12.50
2023-03-26T05:16:47.188Z,12.63
2023-03-26T05:19:13.764Z,13.63
2023-03-26T05:21:40.276Z,13.65
2023-03-26T05:24:06.704Z,15.10
2023-03-26T05:26:33.672Z,13.93
2023-03-26T05:29:00.216Z,13.05
2023-03-26T05:31:31.264Z,13.65
2023-03-26T05:33:58.308Z,13.23
2023-03-26T05:36:24.917Z,14.35
2023-03-26T05:38:52.359Z,14.20
2023-03-26T05:41:18.805Z,16.35
2023-03-26T05:43:45.763Z,11.98
2023-03-26T05:46:12.258Z,14.60
2023-03-26T05:48:39.122Z,12.77
2023-03-26T05:51:05.660Z,14.20
2023-03-26T05:53:32.211Z,13.32
2023-03-26T05:55:58.546Z,11.95
2023-03-26T05:58:28.504Z,13.05
2023-03-26T06:01:20.991Z,11.73
2023-03-26T06:03:47.451Z,12.27
2023-03-26T06:06:16.164Z,11.43
2023-03-26T06:09:01.474Z,12.23
2023-03-26T06:11:28.847Z,12.98
2023-03-26T06:13:55.184Z,12.85
2023-03-26T06:16:27.431Z,12.60
2023-03-26T06:18:56.459Z,11.80
2023-03-26T06:21:24.660Z,11.82
2023-03-26T06:23:51.677Z,11.68
2023-03-26T06:26:18.067Z,11.80
2023-03-26T06:28:44.350Z,10.98
2023-03-26T06:31:10.792Z,10.52
2023-03-26T06:33:37.141Z,9.93
2023-03-26T06:36:03.749Z,8.57
2023-03-26T06:38:30.267Z,10.85
2023-03-26T06:41:02.057Z,10.43
2023-03-26T06:43:28.347Z,10.20
2023-03-26T06:45:54.606Z,9.70
2023-03-26T06:48:21.050Z,11.40
2023-03-26T06:50:47.301Z,10.35
2023-03-26T06:53:13.580Z,9.50
2023-03-26T06:55:39.814Z,9.77
2023-03-26T06:58:06.118Z,8.73
2023-03-26T07:00:32.394Z,7.70
2023-03-26T07:02:58.824Z,7.38
2023-03-26T07:05:25.382Z,7.72
2023-03-26T07:07:51.689Z,8.60
2023-03-26T07:10:17.989Z,8.43
2023-03-26T07:12:44.368Z,7.65
2023-03-26T07:15:10.740Z,8.50
2023-03-26T07:17:37.247Z,8.07
2023-03-26T07:20:04.312Z,8.18
2023-03-26T07:22:30.922Z,8.75
2023-03-26T07:24:57.377Z,9.20
2023-03-26T07:27:42.159Z,9.15
2023-03-26T07:30:11.389Z,11.15
2023-03-26T07:32:37.697Z,9.75
2023-03-26T07:35:23.563Z,9.13
2023-03-26T07:38:01.878Z,9.45
2023-03-26T07:40:40.414Z,8.52
2023-03-26T07:43:24.244Z,16.10
2023-03-26T07:45:50.883Z,11.27
2023-03-26T07:48:18.626Z,10.13
2023-03-26T07:50:45.357Z,10.60
2023-03-26T07:53:11.701Z,10.57
2023-03-26T07:55:47.053Z,15.18
2023-03-26T07:58:31.943Z,11.43
2023-03-26T08:01:06.188Z,10.70
2023-03-26T08:03:44.487Z,10.85
2023-03-26T08:06:16.792Z,12.50
2023-03-26T08:08:58.346Z,12.23
2023-03-26T08:11:37.808Z,15.10
2023-03-26T08:14:22.642Z,10.82
2023-03-26T08:16:53.754Z,10.45
2023-03-26T08:19:38.579Z,18.48
2023-03-26T08:22:28.019Z,19.83
2023-03-26T08:25:16.623Z,55.72
2023-03-26T08:28:04.171Z,18.05
2023-03-26T08:30:31.127Z,13.18
2023-03-26T08:33:00.100Z,12.55
2023-03-26T08:35:27.400Z,13.55
2023-03-26T08:37:53.835Z,15.57
2023-03-26T08:40:36.492Z,17.70
2023-03-26T08:43:21.276Z,13.73
2023-03-26T08:45:54.351Z,12.32
2023-03-26T08:48:39.269Z,14.20
2023-03-26T08:51:05.580Z,13.13
2023-03-26T08:53:50.590Z,11.63
2023-03-26T08:56:16.838Z,11.93
2023-03-26T08:58:55.227Z,11.32
2023-03-26T09:01:30.288Z,13.05
2023-03-26T09:04:15.454Z,12.80
2023-03-26T09:07:01.430Z,11.02
2023-03-26T09:09:46.611Z,12.52
2023-03-26T09:12:19.048Z,13.18
2023-03-26T09:15:02.397Z,14.00
2023-03-26T09:17:37.178Z,13.40
2023-03-26T09:20:22.419Z,14.38
2023-03-26T09:23:15.165Z,17.20
2023-03-26T09:26:00.323Z,17.90
2023-03-26T09:28:29.708Z,18.45
2023-03-26T09:30:56.320Z,16.73
2023-03-26T09:33:25.618Z,17.25
2023-03-26T09:36:14.978Z,18.90
2023-03-26T09:38:44.449Z,17.70
2023-03-26T09:41:18.317Z,16.10
2023-03-26T09:44:03.386Z,14.77
2023-03-26T09:46:32.607Z,15.40
2023-03-26T09:49:01.744Z,15.02
2023-03-26T09:51:48.083Z,14.93
2023-03-26T09:54:26.519Z,15.73
2023-03-26T09:56:58.520Z,15.45
2023-03-26T09:59:34.055Z,14.50
2023-03-26T10:02:04.291Z,14.40
2023-03-26T10:04:38.527Z,13.82
2023-03-26T10:07:23.324Z,14.65
2023-03-26T10:09:56.845Z,15.40
2023-03-26T10:12:39.224Z,14.40
2023-03-26T10:15:06.819Z,13.32
2023-03-26T10:17:38.882Z,13.57
2023-03-26T10:20:24.751Z,14.02
2023-03-26T10:23:09.615Z,12.40
2023-03-26T10:25:36.430Z,12.48
2023-03-26T10:28:05.968Z,11.80
2023-03-26T10:30:32.236Z,11.77
2023-03-26T10:33:17.129Z,12.10
2023-03-26T10:36:02.049Z,10.52
2023-03-26T10:38:37.252Z,9.18
2023-03-26T10:41:25.175Z,10.40
2023-03-26T10:44:01.292Z,9.52
2023-03-26T10:46:31.838Z,9.80
2023-03-26T10:49:14.765Z,8.77
2023-03-26T10:51:48.699Z,7.85
2023-03-26T10:54:21.009Z,7.43
2023-03-26T10:56:49.475Z,7.10
2023-03-26T10:59:16.653Z,7.30
2023-03-26T11:01:49.988Z,6.55
2023-03-26T11:04:24.874Z,6.72
2023-03-26T11:06:51.547Z,6.03
2023-03-26T11:09:22.673Z,6.95
2023-03-26T11:12:26.157Z,6.65
2023-03-26T11:14:59.867Z,6.25
2023-03-26T11:17:40.983Z,6.20
2023-03-26T11:20:16.558Z,6.88
2023-03-26T11:22:50.383Z,5.80
2023-03-26T11:25:19.452Z,5.13
2023-03-26T11:27:58.077Z,6.13
2023-03-26T11:30:42.931Z,6.43
2023-03-26T11:33:11.828Z,5.22
2023-03-26T11:35:41.743Z,4.35
2023-03-26T11:38:14.151Z,4.82
2023-03-26T11:40:42.412Z,4.38
2023-03-26T11:43:11.668Z,4.88
2023-03-26T11:45:40.764Z,5.38
2023-03-26T11:48:19.336Z,5.55
2023-03-26T11:50:47.986Z,4.75
2023-03-26T11:53:17.650Z,5.13
2023-03-26T11:55:50.312Z,5.20
2023-03-26T11:58:25.855Z,4.93
2023-03-26T12:00:53.008Z,4.30
2023-03-26T12:03:20.848Z,4.72
2023-03-26T12:05:49.181Z,4.47
2023-03-26T12:08:19.572Z,4.93
2023-03-26T12:10:50.639Z,4.00
2023-03-26T12:13:34.222Z,5.70
2023-03-26T12:16:04.586Z,4.65
2023-03-26T12:18:32.045Z,4.45
2023-03-26T12:21:09.282Z,4.63
2023-03-26T12:23:43.811Z,5.00
2023-03-26T12:26:21.034Z,5.90
2023-03-26T12:28:49.150Z,5.18
2023-03-26T12:31:18.300Z,5.63
2023-03-26T12:33:46.419Z,4.65
2023-03-26T12:36:17.796Z,4.50
2023-03-26T12:38:45.908Z,4.72
2023-03-26T12:42:25.913Z,4.00
2023-03-26T12:44:52.751Z,4.22
2023-03-26T12:47:58.982Z,4.47
2023-03-26T12:50:02.367Z,4.43
2023-03-26T12:53:06.943Z,4.10
2023-03-26T12:55:36.733Z,3.72
2023-03-26T12:58:13.738Z,3.57
2023-03-26T13:00:48.852Z,3.20
2023-03-26T13:03:20.605Z,3.05
2023-03-26T13:05:53.235Z,3.30
2023-03-26T13:08:30.982Z,3.60
2023-03-26T13:11:09.084Z,3.05
2023-03-26T13:13:41.373Z,3.75
2023-03-26T13:16:21.600Z,3.20
2023-03-26T13:18:54.058Z,3.20
2023-03-26T13:21:40.704Z,3.47
2023-03-26T13:24:09.808Z,3.03
2023-03-26T13:26:50.865Z,3.60
2023-03-26T13:29:22.231Z,3.10
2023-03-26T13:32:08.768Z,3.25
2023-03-26T13:34:35.032Z,2.85
2023-03-26T13:37:13.408Z,2.80
2023-03-26T13:39:46.030Z,2.78
2023-03-26T13:42:33.662Z,2.63
2023-03-26T13:45:05.021Z,3.88
2023-03-26T13:47:34.933Z,3.25
2023-03-26T13:50:19.734Z,2.75
2023-03-26T13:52:49.058Z,2.50
2023-03-26T13:55:18.176Z,2.35
2023-03-26T13:57:51.725Z,2.70
2023-03-26T14:00:26.559Z,2.67
2023-03-26T14:03:03.305Z,2.58
2023-03-26T14:05:39.739Z,2.50
2023-03-26T14:08:12.889Z,2.40
2023-03-26T14:10:44.061Z,3.35
2023-03-26T14:13:18.808Z,2.65
2023-03-26T14:15:54.861Z,2.30
2023-03-26T14:18:30.695Z,3.05
2023-03-26T14:21:05.848Z,3.30
2023-03-26T14:23:37.979Z,2.20
2023-03-26T14:26:10.182Z,2.55
2023-03-26T14:28:36.419Z,1.83
2023-03-26T14:31:03.966Z,1.77
2023-03-26T14:33:36.106Z,2.88
2023-03-26T14:36:21.004Z,3.17
2023-03-26T14:38:47.304Z,2.17
2023-03-26T14:41:22.437Z,2.60
2023-03-26T14:43:51.477Z,1.83
2023-03-26T14:46:37.762Z,3.03
2023-03-26T14:49:24.796Z,1.88
2023-03-26T14:52:13.645Z,2.70
2023-03-26T14:54:41.910Z,3.08
2023-03-26T14:57:24.848Z,2.05
2023-03-26T15:00:15.565Z,2.60
2023-03-26T15:05:11.338Z,3.00
2023-03-26T15:07:41.107Z,2.53
2023-03-26T15:10:25.856Z,2.83
2023-03-26T15:12:54.883Z,2.22
2023-03-26T15:15:27.063Z,2.58
2023-03-26T15:18:13.917Z,2.78
2023-03-26T15:21:08.723Z,2.92
2023-03-26T15:23:47.332Z,2.33
2023-03-26T15:26:37.147Z,3.05
2023-03-26T15:29:09.668Z,2.07
2023-03-26T15:31:59.996Z,2.97
2023-03-26T15:34:44.916Z,2.38
2023-03-26T15:37:27.416Z,1.83
2023-03-26T15:40:08.010Z,2.20
2023-03-26T15:42:38.207Z,3.25
2023-03-26T15:45:13.924Z,2.22
2023-03-26T15:47:49.964Z,1.80
2023-03-26T15:50:29.403Z,1.95
2023-03-26T15:52:56.003Z,2.65
2023-03-26T15:55:27.637Z,2.08
2023-03-26T15:58:01.333Z,2.88
2023-03-26T16:00:29.080Z,3.22
2023-03-26T16:03:19.312Z,2.22
2023-03-26T16:05:52.443Z,2.78
2023-03-26T16:08:27.943Z,2.35
2023-03-26T16:10:58.888Z,2.88
2023-03-26T16:13:39.505Z,2.70
2023-03-26T16:16:11.536Z,1.65
2023-03-26T16:18:41.014Z,2.40
2023-03-26T16:21:31.441Z,3.17
2023-03-26T16:24:01.957Z,1.80
2023-03-26T16:26:31.298Z,2.50
2023-03-26T16:29:16.712Z,2.17
2023-03-26T16:32:01.931Z,1.92
2023-03-26T16:34:36.713Z,2.22
2023-03-26T16:37:06.352Z,1.98
2023-03-26T16:39:44.146Z,2.10
2023-03-26T16:42:16.290Z,2.30
2023-03-26T16:44:52.779Z,1.98
2023-03-26T16:47:23.648Z,3.60
2023-03-26T16:50:08.819Z,2.33
2023-03-26T16:52:42.790Z,2.50
2023-03-26T16:55:28.266Z,2.90
2023-03-26T16:58:05.662Z,2.17
2023-03-26T17:00:52.319Z,1.70
2023-03-26T17:03:28.247Z,2.78
2023-03-26T17:05:56.334Z,1.92
2023-03-26T17:08:36.605Z,1.92
2023-03-26T17:13:38.745Z,1.75
2023-03-26T17:16:11.570Z,2.38
2023-03-26T17:18:46.762Z,1.67
2023-03-26T17:21:45.515Z,2.50
2023-03-26T17:24:32.085Z,1.98
2023-03-26T17:27:23.626Z,1.77
2023-03-26T17:29:59.299Z,2.08
2023-03-26T17:32:47.141Z,2.28
2023-03-26T17:35:15.269Z,2.38
2023-03-26T17:37:46.507Z,2.05
2023-03-26T17:40:31.449Z,2.15
2023-03-26T17:43:02.119Z,2.20
2023-03-26T17:47:58.797Z,2.15
2023-03-26T17:50:44.271Z,1.50
2023-03-26T17:53:31.006Z,1.90
2023-03-26T17:56:01.046Z,1.67
2023-03-26T17:58:33.840Z,2.08
2023-03-26T18:01:07.097Z,1.30
2023-03-26T18:03:39.709Z,1.95
2023-03-26T18:06:12.910Z,2.58
2023-03-26T18:08:54.352Z,2.60
2023-03-26T18:11:23.701Z,2.45
2023-03-26T18:13:50.034Z,2.08
2023-03-26T18:16:35.055Z,2.30
2023-03-26T18:19:02.809Z,1.63
2023-03-26T18:21:37.053Z,2.10
2023-03-26T18:24:04.537Z,1.95
2023-03-26T18:26:39.489Z,2.17
2023-03-26T18:29:23.824Z,2.25
2023-03-26T18:31:54.508Z,2.33
2023-03-26T18:36:57.362Z,2.45
2023-03-26T18:39:23.639Z,1.95
2023-03-26T18:41:49.952Z,1.80
2023-03-26T18:44:17.604Z,2.08
2023-03-26T18:46:43.995Z,2.47
2023-03-26T18:49:12.041Z,2.30
2023-03-26T18:51:46.432Z,1.98
2023-03-26T18:54:21.285Z,2.88
2023-03-26T18:56:48.845Z,1.67
2023-03-26T18:59:18.931Z,2.50
2023-03-26T19:01:47.499Z,1.52
2023-03-26T19:04:14.045Z,2.22
2023-03-26T19:06:41.769Z,1.85
2023-03-26T19:09:28.038Z,1.65
2023-03-26T19:11:58.838Z,2.42
2023-03-26T19:14:26.163Z,2.00
2023-03-26T19:16:56.406Z,2.22
2023-03-26T19:19:25.245Z,1.77
2023-03-26T19:21:51.571Z,2.05
2023-03-26T19:24:19.184Z,2.25
2023-03-26T19:26:46.886Z,2.55
2023-03-26T19:29:14.872Z,2.35
2023-03-26T19:31:42.328Z,2.28
2023-03-26T19:34:11.468Z,1.65
2023-03-26T19:36:48.812Z,2.00
2023-03-26T19:39:24.242Z,2.20
2023-03-26T19:41:57.288Z,2.08
2023-03-26T19:44:27.844Z,2.20
2023-03-26T19:47:02.260Z,2.40
2023-03-26T19:49:52.821Z,2.17
2023-03-26T19:52:19.017Z,1.95
2023-03-26T19:55:06.686Z,2.30
2023-03-26T19:57:36.230Z,2.53
2023-03-26T20:00:05.127Z,2.10
2023-03-26T20:02:31.527Z,1.75
2023-03-26T20:04:57.949Z,1.88
2023-03-26T20:07:35.447Z,2.20
2023-03-26T20:10:03.103Z,1.55
2023-03-26T20:12:29.453Z,1.60
2023-03-26T20:14:55.761Z,3.00
2023-03-26T20:17:22.427Z,1.77
2023-03-26T20:19:48.975Z,1.88
2023-03-26T20:22:16.765Z,1.75
2023-03-26T20:24:44.854Z,1.70
2023-03-26T20:27:13.150Z,1.92
2023-03-26T20:29:40.054Z,1.67
2023-03-26T20:32:19.697Z,2.40
2023-03-26T20:34:49.041Z,1.60
2023-03-26T20:37:16.151Z,1.92
2023-03-26T20:39:42.566Z,2.58
2023-03-26T20:42:09.509Z,1.70
2023-03-26T20:44:35.912Z,1.88
2023-03-26T20:47:02.310Z,1.90
2023-03-26T20:49:29.280Z,2.13
2023-03-26T20:51:56.020Z,1.25
2023-03-26T20:54:23.582Z,2.05
2023-03-26T20:56:50.286Z,2.13
2023-03-26T20:59:18.979Z,1.50
2023-03-26T21:01:47.335Z,1.85
2023-03-26T21:04:14.192Z,1.83
2023-03-26T21:06:42.210Z,2.22
2023-03-26T21:09:17.643Z,2.30
2023-03-26T21:11:46.805Z,1.75
2023-03-26T21:14:20.750Z,1.63
2023-03-26T21:16:47.199Z,1.92
2023-03-26T21:19:13.773Z,1.63
2023-03-26T21:21:47.595Z,1.98
2023-03-26T21:24:17.218Z,1.50
2023-03-26T21:26:43.805Z,2.30
2023-03-26T21:29:11.788Z,2.13
2023-03-26T21:31:38.205Z,1.73
2023-03-26T21:34:05.394Z,2.30
2023-03-26T21:36:32.256Z,1.90
2023-03-26T21:38:59.037Z,2.45
2023-03-26T21:41:46.737Z,2.55
2023-03-26T21:44:14.247Z,1.92
2023-03-26T21:46:41.476Z,1.58
2023-03-26T21:49:08.005Z,2.22
2023-03-26T21:51:34.499Z,1.42
2023-03-26T21:54:00.972Z,2.30
2023-03-26T21:56:38.843Z,1.75
2023-03-26T21:59:20.274Z,2.47
2023-03-26T22:01:49.892Z,1.92
2023-03-26T22:04:22.979Z,1.67
2023-03-26T22:06:54.715Z,1.67
2023-03-26T22:09:30.085Z,1.50
2023-03-26T22:12:02.418Z,1.67
2023-03-26T22:14:28.824Z,1.60
2023-03-26T22:16:55.141Z,3.22
2023-03-26T22:19:21.444Z,1.67
2023-03-26T22:21:47.765Z,1.60
2023-03-26T22:24:13.998Z,1.75
2023-03-26T22:26:40.652Z,1.88
2023-03-26T22:29:07.334Z,1.90
2023-03-26T22:31:34.743Z,1.52
2023-03-26T22:34:01.429Z,1.80
2023-03-26T22:36:27.689Z,1.50
2023-03-26T22:38:54.499Z,2.65
2023-03-26T22:41:21.478Z,2.13
2023-03-26T22:43:47.797Z,2.13
2023-03-26T22:46:14.257Z,1.77
2023-03-26T22:48:40.733Z,1.77
2023-03-26T22:51:08.284Z,1.85
2023-03-26T22:53:35.902Z,1.70
2023-03-26T22:56:02.905Z,2.08
2023-03-26T22:58:29.308Z,1.50
2023-03-26T23:01:21.753Z,1.80
2023-03-26T23:03:48.210Z,1.80
2023-03-26T23:06:15.315Z,1.55
2023-03-26T23:08:41.757Z,1.40
2023-03-26T23:11:08.946Z,1.55
2023-03-26T23:13:35.187Z,2.10
2023-03-26T23:16:02.216Z,2.30
2023-03-26T23:18:28.944Z,1.15
2023-03-26T23:20:56.802Z,1.60
2023-03-26T23:23:27.273Z,1.48
2023-03-26T23:25:54.374Z,1.52
2023-03-26T23:28:21.151Z,1.50
2023-03-26T23:30:54.278Z,1.40
2023-03-26T23:33:22.032Z,2.13
2023-03-26T23:35:49.399Z,1.75
2023-03-26T23:38:17.888Z,1.67
2023-03-26T23:40:44.672Z,1.65
2023-03-26T23:43:24.416Z,1.85
2023-03-26T23:45:50.870Z,1.70
2023-03-26T23:48:18.194Z,1.75
2023-03-26T23:50:48.143Z,1.85
2023-03-26T23:53:15.240Z,1.33
2023-03-26T23:55:41.478Z,1.20
2023-03-26T23:58:07.712Z,1.48
